Medicine Hat Airport
CYXH : now visible

Airfield :











YOU CAN JOIN US ON...

 
LOGIN :

Register | Disclaimer

   EN    FR    IT 

 









Legend :    VFR   Marginal VFR   IFR   Intensive IFR   Very Intensive IFR
Visi :
Ceiling :
>= 8 km
>= 3000ft
5 to 8 km
1000 to 3000 ft
1500m to 5 km
500 to 1000 ft
800 to 1500m
200 to 500 ft
< 800m
< 200 ft
Symbols :   Thunderstorms  Fog  Heavy snow  Heavy precipitations  Wind > 20 kt






- Airport Elevation : 2352 ft
- IATA code : YXH


CYXH - Medicine Hat

CURRENT METAR :
  • 081900Z 29023KT 30SM SCT070 05/M11 A3024 RMK AC4 SLP267

EXPIRED METARs :
  • 081800Z 28019G26KT 30SM SCT035 05/M10 A3026 RMK SC3 SLP274
  • 081700Z 29017G26KT 30SM FEW025 FEW260 04/M09 A3027 RMK SC1CI1 SLP276
  • 081600Z 29017G23KT 30SM FEW020 SCT090 BKN260 03/M10 A3026 RMK SC1AC2CI2 SLP275

TAF TAF CYXH
Valid from the 08 at 18:00 until the 09 at 06:00 UTC


081739Z 0818/0906 30015G25KT P6SM FEW040
FM082300 33012KT P6SM FEW080 SCT120
BECMG 0903/0905 33006KT RMK NXT FCST BY 090000Z



MET'MAP, your aeronautical weather chart ! - Copyright ORBIFLY December 2007 - Disclaimer

ORBIFLY MET'MAP TEAM :

Programming & Development : Alexandra Zaïnal
Concept & original design : Baudouin d'Aumeries
Assistance for programming : Marc-Olivier Méhu
Technical & hardware support : Manuel Goepfert

Contact : metmap@orbifly.com




SOURCES & CREDITS :

   NOAA       Earth
Advisory